createdAt,value
2023-04-29T00:01:39.978Z,95.74
2023-04-29T00:04:28.466Z,95.71
2023-04-29T00:07:16.938Z,95.15
2023-04-29T00:10:06.274Z,94.80
2023-04-29T00:12:54.612Z,94.92
2023-04-29T00:15:43.486Z,94.91
2023-04-29T00:18:33.899Z,94.60
2023-04-29T00:21:22.230Z,94.39
2023-04-29T00:24:10.884Z,94.27
2023-04-29T00:26:59.511Z,94.04
2023-04-29T00:29:47.861Z,93.60
2023-04-29T00:32:36.542Z,93.47
2023-04-29T00:35:26.293Z,93.37
2023-04-29T00:38:14.736Z,93.38
2023-04-29T00:41:04.159Z,93.75
2023-04-29T00:43:52.864Z,93.93
2023-04-29T00:46:41.378Z,93.95
2023-04-29T00:49:29.917Z,94.24
2023-04-29T00:52:20.308Z,95.04
2023-04-29T00:55:09.273Z,95.26
2023-04-29T00:57:58.390Z,94.72
2023-04-29T01:00:47.154Z,94.97
2023-04-29T01:03:35.723Z,95.59
2023-04-29T01:06:30.839Z,95.16
2023-04-29T01:09:30.553Z,95.80
2023-04-29T01:12:23.451Z,95.37
2023-04-29T01:15:16.997Z,95.39
2023-04-29T01:18:07.268Z,95.47
2023-04-29T01:20:56.482Z,95.52
2023-04-29T01:23:46.379Z,96.53
2023-04-29T01:26:35.852Z,95.92
2023-04-29T01:29:47.053Z,95.29
2023-04-29T01:32:44.787Z,95.41
2023-04-29T01:35:46.259Z,94.53
2023-04-29T01:38:38.834Z,94.27
2023-04-29T01:41:36.914Z,94.18
2023-04-29T01:44:34.268Z,93.94
2023-04-29T01:47:22.918Z,93.60
2023-04-29T01:50:14.370Z,93.51
2023-04-29T01:53:02.841Z,93.72
2023-04-29T01:55:51.397Z,93.95
2023-04-29T01:58:43.813Z,94.64
2023-04-29T02:01:51.339Z,94.94
2023-04-29T02:04:40.276Z,95.51
2023-04-29T02:07:29.449Z,95.15
2023-04-29T02:10:18.374Z,94.85
2023-04-29T02:13:12.052Z,94.51
2023-04-29T02:16:10.008Z,94.16
2023-04-29T02:19:00.486Z,93.93
2023-04-29T02:21:48.827Z,94.27
2023-04-29T02:24:39.320Z,94.13
2023-04-29T02:27:28.970Z,94.14
2023-04-29T02:30:17.417Z,94.48
2023-04-29T02:33:08.675Z,95.06
2023-04-29T02:35:57.253Z,94.78
2023-04-29T02:38:45.591Z,94.53
2023-04-29T02:41:34.499Z,94.37
2023-04-29T02:44:22.858Z,94.42
2023-04-29T02:47:11.505Z,94.04
2023-04-29T02:50:20.209Z,94.23
2023-04-29T02:53:27.190Z,93.67
2023-04-29T02:56:15.678Z,93.23
2023-04-29T02:59:03.988Z,93.04
2023-04-29T03:01:54.622Z,92.57
2023-04-29T03:04:43.221Z,92.31
2023-04-29T03:07:33.139Z,91.86
2023-04-29T03:10:21.833Z,92.02
2023-04-29T03:13:10.246Z,91.99
2023-04-29T03:16:00.635Z,91.41
2023-04-29T03:18:49.723Z,91.42
2023-04-29T03:21:38.100Z,91.66
2023-04-29T03:24:27.993Z,91.98
2023-04-29T03:27:16.412Z,91.65
2023-04-29T03:30:06.387Z,91.96
2023-04-29T03:32:55.133Z,91.71
2023-04-29T03:35:43.955Z,91.85
2023-04-29T03:38:57.061Z,91.61
2023-04-29T03:41:48.190Z,91.34
2023-04-29T03:44:36.925Z,91.13
2023-04-29T03:47:25.397Z,91.70
2023-04-29T03:50:13.802Z,91.34
2023-04-29T03:53:02.611Z,91.83
2023-04-29T03:55:52.036Z,91.88
2023-04-29T03:58:41.827Z,91.67
2023-04-29T04:01:30.622Z,91.92
2023-04-29T04:04:19.419Z,91.64
2023-04-29T04:07:11.689Z,91.56
2023-04-29T04:10:20.121Z,91.72
2023-04-29T04:13:08.454Z,91.86
2023-04-29T04:15:58.292Z,92.48
2023-04-29T04:18:46.814Z,94.04
2023-04-29T04:21:36.384Z,93.84
2023-04-29T04:24:28.005Z,93.58
2023-04-29T04:27:16.364Z,92.78
2023-04-29T04:30:09.364Z,92.93
2023-04-29T04:32:59.857Z,92.32
2023-04-29T04:35:48.550Z,92.67
2023-04-29T04:38:36.886Z,92.25
2023-04-29T04:41:31.592Z,92.25
2023-04-29T04:44:20.923Z,92.27
2023-04-29T04:47:18.432Z,92.81
2023-04-29T04:50:24.451Z,92.92
2023-04-29T04:53:13.913Z,93.08
2023-04-29T04:56:10.473Z,93.60
2023-04-29T04:58:59.456Z,93.79
2023-04-29T05:01:47.888Z,93.28
2023-04-29T05:04:36.222Z,93.33
2023-04-29T05:07:26.495Z,93.07
2023-04-29T05:10:26.956Z,93.34
2023-04-29T05:13:18.142Z,94.63
2023-04-29T05:16:07.209Z,95.55
2023-04-29T05:18:56.814Z,95.48
2023-04-29T05:21:50.170Z,95.81
2023-04-29T05:24:39.942Z,96.66
2023-04-29T05:27:28.462Z,98.12
2023-04-29T05:30:18.441Z,97.96
2023-04-29T05:33:07.905Z,98.52
2023-04-29T05:35:56.312Z,98.22
2023-04-29T05:38:45.370Z,100.00
2023-04-29T05:41:35.181Z,100.00
2023-04-29T05:44:42.876Z,100.00
2023-04-29T05:47:31.623Z,100.00
2023-04-29T05:50:19.997Z,100.00
2023-04-29T05:53:08.533Z,100.00
2023-04-29T05:55:57.744Z,100.00
2023-04-29T05:58:47.513Z,100.00
2023-04-29T06:01:35.857Z,100.00
2023-04-29T06:04:24.384Z,100.00
2023-04-29T06:07:31.500Z,100.00
2023-04-29T06:10:22.484Z,100.00
2023-04-29T06:13:11.360Z,100.00
2023-04-29T06:16:01.216Z,100.00
2023-04-29T06:18:53.905Z,100.00
2023-04-29T06:21:42.323Z,100.00
2023-04-29T06:24:30.728Z,100.00
2023-04-29T06:27:19.209Z,100.00
2023-04-29T06:30:08.940Z,100.00
2023-04-29T06:32:58.890Z,100.00
2023-04-29T06:35:47.335Z,100.00
2023-04-29T06:38:46.094Z,100.00
2023-04-29T06:41:58.904Z,100.00
2023-04-29T06:45:10.508Z,100.00
2023-04-29T06:48:09.015Z,100.00
2023-04-29T06:51:00.791Z,100.00
2023-04-29T06:53:49.378Z,100.00
2023-04-29T06:56:37.691Z,100.00
2023-04-29T06:59:26.053Z,100.00
2023-04-29T07:02:14.669Z,100.00
2023-04-29T07:05:04.666Z,100.00
2023-04-29T07:07:53.010Z,100.00
2023-04-29T07:10:41.528Z,100.00
2023-04-29T07:13:30.004Z,100.00
2023-04-29T07:16:20.579Z,99.07
2023-04-29T07:19:08.982Z,99.80
2023-04-29T07:21:58.688Z,99.85
2023-04-29T07:24:47.153Z,96.45
2023-04-29T07:27:36.031Z,96.21
2023-04-29T07:30:25.158Z,94.88
2023-04-29T07:33:13.603Z,95.41
2023-04-29T07:36:02.174Z,94.49
2023-04-29T07:38:52.432Z,94.79
2023-04-29T07:41:41.620Z,95.57
2023-04-29T07:44:30.179Z,94.99
2023-04-29T07:47:18.785Z,95.08
2023-04-29T07:50:08.076Z,94.60
2023-04-29T07:52:57.870Z,92.99
2023-04-29T07:55:47.664Z,93.35
2023-04-29T07:58:36.575Z,92.91
2023-04-29T08:01:25.095Z,93.52
2023-04-29T08:04:13.742Z,91.12
2023-04-29T08:07:10.675Z,91.59
2023-04-29T08:09:59.045Z,89.54
2023-04-29T08:12:49.163Z,91.17
2023-04-29T08:15:37.512Z,91.51
2023-04-29T08:18:26.380Z,89.73
2023-04-29T08:21:14.730Z,91.47
2023-04-29T08:24:03.125Z,90.66
2023-04-29T08:26:52.497Z,89.46
2023-04-29T08:29:42.323Z,87.88
2023-04-29T08:32:30.752Z,87.12
2023-04-29T08:35:19.375Z,87.38
2023-04-29T08:38:07.927Z,85.86
2023-04-29T08:40:56.476Z,88.06
2023-04-29T08:43:44.967Z,85.33
2023-04-29T08:46:34.827Z,84.57
2023-04-29T08:49:23.341Z,86.09
2023-04-29T08:52:11.763Z,85.03
2023-04-29T08:55:02.542Z,84.16
2023-04-29T08:57:51.960Z,85.03
2023-04-29T09:00:41.145Z,77.96
2023-04-29T09:03:33.705Z,81.01
2023-04-29T09:06:22.404Z,80.34
2023-04-29T09:09:11.676Z,80.84
2023-04-29T09:12:00.230Z,77.56
2023-04-29T09:14:48.686Z,79.92
2023-04-29T09:17:43.821Z,77.23
2023-04-29T09:20:33.695Z,78.89
2023-04-29T09:23:22.688Z,80.16
2023-04-29T09:26:11.168Z,77.25
2023-04-29T09:29:11.229Z,78.08
2023-04-29T09:31:59.674Z,72.58
2023-04-29T09:34:48.300Z,73.67
2023-04-29T09:37:38.118Z,74.33
2023-04-29T09:40:31.588Z,74.85
2023-04-29T09:43:21.544Z,74.89
2023-04-29T09:46:14.357Z,74.22
2023-04-29T09:49:03.042Z,73.83
2023-04-29T09:51:55.233Z,73.82
2023-04-29T09:54:45.788Z,72.94
2023-04-29T09:57:45.791Z,70.28
2023-04-29T10:00:35.762Z,71.32
2023-04-29T10:03:27.157Z,70.80
2023-04-29T10:06:18.178Z,67.53
2023-04-29T10:09:07.298Z,71.19
2023-04-29T10:11:57.178Z,70.42
2023-04-29T10:14:49.848Z,69.60
2023-04-29T10:17:42.718Z,67.95
2023-04-29T10:20:31.451Z,67.74
2023-04-29T10:23:21.743Z,67.75
2023-04-29T10:26:13.601Z,68.31
2023-04-29T10:29:04.022Z,67.97
2023-04-29T10:31:52.976Z,67.60
2023-04-29T10:34:42.285Z,66.01
2023-04-29T10:37:31.322Z,66.66
2023-04-29T10:40:24.355Z,66.31
2023-04-29T10:43:12.780Z,65.05
2023-04-29T10:46:21.223Z,63.65
2023-04-29T10:49:09.677Z,65.59
2023-04-29T10:52:04.964Z,61.52
2023-04-29T10:55:03.338Z,60.72
2023-04-29T10:57:53.853Z,59.42
2023-04-29T11:00:42.298Z,57.40
2023-04-29T11:03:59.489Z,59.52
2023-04-29T11:06:49.782Z,60.19
2023-04-29T11:09:38.762Z,57.18
2023-04-29T11:12:27.146Z,58.90
2023-04-29T11:15:19.295Z,62.03
2023-04-29T11:18:12.312Z,60.34
2023-04-29T11:21:15.123Z,59.76
2023-04-29T11:24:04.553Z,60.54
2023-04-29T11:26:53.483Z,60.30
2023-04-29T11:29:42.098Z,62.70
2023-04-29T11:32:32.485Z,62.72
2023-04-29T11:35:20.957Z,65.47
2023-04-29T11:38:10.779Z,64.99
2023-04-29T11:40:59.536Z,65.52
2023-04-29T11:43:48.165Z,65.98
2023-04-29T11:46:36.495Z,67.45
2023-04-29T11:49:28.925Z,64.68
2023-04-29T11:52:17.554Z,66.50
2023-04-29T11:55:08.657Z,63.33
2023-04-29T11:57:56.994Z,62.80
2023-04-29T12:00:45.811Z,63.35
2023-04-29T12:03:34.932Z,65.26
2023-04-29T12:06:23.678Z,62.10
2023-04-29T12:09:12.138Z,67.21
2023-04-29T12:12:01.886Z,62.63
2023-04-29T12:14:50.548Z,61.52
2023-04-29T12:17:39.709Z,59.10
2023-04-29T12:20:29.137Z,61.85
2023-04-29T12:23:19.114Z,63.31
2023-04-29T12:26:08.013Z,61.50
2023-04-29T12:28:58.657Z,63.87
2023-04-29T12:31:48.997Z,61.99
2023-04-29T12:34:37.533Z,62.90
2023-04-29T12:37:26.043Z,60.94
2023-04-29T12:40:16.395Z,65.48
2023-04-29T12:43:09.216Z,62.52
2023-04-29T12:46:03.596Z,61.67
2023-04-29T12:48:51.921Z,60.80
2023-04-29T12:51:40.289Z,63.89
2023-04-29T12:54:28.641Z,65.26
2023-04-29T12:57:16.987Z,60.28
2023-04-29T13:00:07.460Z,58.25
2023-04-29T13:02:57.517Z,61.10
2023-04-29T13:05:47.330Z,62.19
2023-04-29T13:08:35.693Z,63.27
2023-04-29T13:11:24.112Z,64.18
2023-04-29T13:14:13.019Z,58.33
2023-04-29T13:17:01.505Z,59.90
2023-04-29T13:19:52.235Z,62.58
2023-04-29T13:22:40.978Z,56.69
2023-04-29T13:25:29.334Z,58.87
2023-04-29T13:28:17.689Z,55.60
2023-04-29T13:31:06.044Z,56.83
2023-04-29T13:33:55.402Z,58.44
2023-04-29T13:36:45.162Z,58.26
2023-04-29T13:39:37.938Z,57.63
2023-04-29T13:42:27.296Z,58.82
2023-04-29T13:45:16.770Z,58.31
2023-04-29T13:48:12.035Z,54.72
2023-04-29T13:57:40.218Z,56.69
2023-04-29T14:00:04.164Z,53.04
2023-04-29T14:05:49.563Z,56.51
2023-04-29T14:08:37.975Z,56.15
2023-04-29T14:11:27.708Z,54.02
2023-04-29T14:14:16.498Z,53.97
2023-04-29T14:17:04.857Z,53.17
2023-04-29T14:19:53.402Z,53.47
2023-04-29T14:22:41.959Z,51.37
2023-04-29T14:25:31.544Z,53.88
2023-04-29T14:28:22.874Z,52.51
2023-04-29T14:31:13.775Z,56.25
2023-04-29T14:34:02.648Z,56.86
2023-04-29T14:36:51.413Z,53.04
2023-04-29T14:39:39.810Z,55.09
2023-04-29T14:42:28.224Z,53.41
2023-04-29T14:45:18.274Z,50.40
2023-04-29T14:48:07.991Z,51.78
2023-04-29T14:50:56.523Z,51.35
2023-04-29T14:53:45.166Z,53.01
2023-04-29T14:56:33.509Z,51.51
2023-04-29T14:59:21.898Z,52.74
2023-04-29T15:02:11.765Z,55.83
2023-04-29T15:05:00.263Z,53.63
2023-04-29T15:07:48.630Z,53.91
2023-04-29T15:10:37.171Z,56.76
2023-04-29T15:13:25.543Z,55.78
2023-04-29T15:16:14.002Z,56.95
2023-04-29T15:19:03.763Z,51.11
2023-04-29T15:21:52.390Z,51.79
2023-04-29T15:24:40.940Z,52.06
2023-04-29T15:27:29.511Z,49.20
2023-04-29T15:30:18.833Z,52.68
2023-04-29T15:33:07.278Z,49.98
2023-04-29T15:35:57.797Z,52.09
2023-04-29T15:38:46.229Z,50.94
2023-04-29T15:41:34.655Z,51.57
2023-04-29T15:44:23.043Z,51.32
2023-04-29T15:47:11.636Z,49.09
2023-04-29T15:50:00.057Z,49.40
2023-04-29T15:52:52.500Z,48.05
2023-04-29T15:55:40.952Z,49.91
2023-04-29T15:58:29.502Z,48.83
2023-04-29T16:01:17.930Z,48.18
2023-04-29T16:04:06.459Z,48.84
2023-04-29T16:06:54.878Z,49.82
2023-04-29T16:09:44.744Z,52.45
2023-04-29T16:12:33.125Z,52.08
2023-04-29T16:15:46.638Z,51.38
2023-04-29T16:18:35.020Z,52.71
2023-04-29T16:21:23.602Z,55.79
2023-04-29T16:24:12.017Z,52.93
2023-04-29T16:27:01.802Z,52.48
2023-04-29T16:29:50.645Z,53.68
2023-04-29T16:32:41.595Z,53.83
2023-04-29T16:35:31.068Z,52.87
2023-04-29T16:38:19.602Z,54.21
2023-04-29T16:41:08.292Z,56.52
2023-04-29T16:43:58.561Z,54.71
2023-04-29T16:46:46.953Z,57.67
2023-04-29T16:49:35.308Z,56.18
2023-04-29T16:52:24.169Z,55.31
2023-04-29T16:55:13.354Z,56.09
2023-04-29T16:58:01.702Z,57.44
2023-04-29T17:00:51.460Z,57.03
2023-04-29T17:03:39.879Z,57.05
2023-04-29T17:06:28.473Z,58.16
2023-04-29T17:09:17.732Z,58.05
2023-04-29T17:12:06.791Z,59.52
2023-04-29T17:14:55.513Z,59.86
2023-04-29T17:17:46.550Z,59.32
2023-04-29T17:20:35.241Z,59.96
2023-04-29T17:23:23.702Z,60.61
2023-04-29T17:26:12.106Z,60.34
2023-04-29T17:29:00.511Z,60.53
2023-04-29T17:31:54.799Z,62.21
2023-04-29T17:34:44.949Z,63.13
2023-04-29T17:37:33.338Z,62.31
2023-04-29T17:40:21.913Z,63.11
2023-04-29T17:43:10.307Z,63.99
2023-04-29T17:45:59.490Z,63.90
2023-04-29T17:48:47.893Z,63.94
2023-04-29T17:51:37.739Z,63.09
2023-04-29T17:54:26.235Z,63.29
2023-04-29T17:57:14.645Z,63.91
2023-04-29T18:00:03.337Z,63.14
2023-04-29T18:02:53.915Z,62.56
2023-04-29T18:05:42.409Z,62.79
2023-04-29T18:08:32.278Z,63.76
2023-04-29T18:11:21.118Z,63.47
2023-04-29T18:14:09.514Z,63.85
2023-04-29T18:16:58.513Z,65.08
2023-04-29T18:19:48.620Z,64.79
2023-04-29T18:22:37.028Z,64.45
2023-04-29T18:25:26.768Z,63.68
2023-04-29T18:28:24.853Z,64.19
2023-04-29T18:31:14.033Z,64.98
2023-04-29T18:34:02.516Z,64.26
2023-04-29T18:36:51.322Z,64.32
2023-04-29T18:39:39.692Z,64.40
2023-04-29T18:42:29.471Z,63.98
2023-04-29T18:45:18.065Z,63.92
2023-04-29T18:48:07.009Z,64.33
2023-04-29T18:50:58.159Z,65.01
2023-04-29T18:53:46.560Z,64.08
2023-04-29T18:56:34.895Z,64.30
2023-04-29T18:59:24.689Z,64.94
2023-04-29T19:02:13.058Z,65.26
2023-04-29T19:05:05.930Z,64.77
2023-04-29T19:07:54.500Z,65.52
2023-04-29T19:10:42.937Z,65.36
2023-04-29T19:13:31.395Z,66.41
2023-04-29T19:16:21.272Z,65.91
2023-04-29T19:19:09.927Z,65.18
2023-04-29T19:21:58.481Z,65.34
2023-04-29T19:24:47.021Z,65.72
2023-04-29T19:27:35.396Z,66.02
2023-04-29T19:30:23.840Z,66.03
2023-04-29T19:33:13.618Z,66.02
2023-04-29T19:36:02.404Z,66.32
2023-04-29T19:38:50.848Z,65.85
2023-04-29T19:41:39.259Z,66.14
2023-04-29T19:44:27.743Z,66.18
2023-04-29T19:47:16.258Z,66.28
2023-04-29T19:50:06.605Z,65.85
2023-04-29T19:52:54.973Z,66.05
2023-04-29T19:55:43.509Z,66.55
2023-04-29T19:58:31.940Z,67.45
2023-04-29T20:01:20.623Z,66.62
2023-04-29T20:04:11.258Z,67.40
2023-04-29T20:07:02.464Z,67.19
2023-04-29T20:09:50.814Z,68.09
2023-04-29T20:12:40.434Z,67.85
2023-04-29T20:15:28.955Z,68.22
2023-04-29T20:18:17.938Z,67.75
2023-04-29T20:21:06.955Z,68.58
2023-04-29T20:23:57.146Z,67.78
2023-04-29T20:26:45.803Z,68.68
2023-04-29T20:29:34.370Z,68.49
2023-04-29T20:32:22.793Z,68.26
2023-04-29T20:35:11.276Z,68.62
2023-04-29T20:37:59.908Z,68.74
2023-04-29T20:40:53.979Z,69.78
2023-04-29T20:43:42.342Z,69.34
2023-04-29T20:46:30.888Z,69.59
2023-04-29T20:49:19.330Z,69.96
2023-04-29T20:52:07.876Z,69.88
2023-04-29T20:54:56.305Z,70.07
2023-04-29T20:57:46.040Z,69.77
2023-04-29T21:00:34.428Z,69.92
2023-04-29T21:03:23.032Z,70.00
2023-04-29T21:06:11.817Z,70.50
2023-04-29T21:09:00.405Z,70.05
2023-04-29T21:11:49.863Z,70.59
2023-04-29T21:14:40.886Z,71.03
2023-04-29T21:17:31.300Z,70.61
2023-04-29T21:20:19.923Z,71.20
2023-04-29T21:23:08.384Z,71.30
2023-04-29T21:25:56.924Z,71.88
2023-04-29T21:28:45.312Z,71.36
2023-04-29T21:31:35.072Z,71.36
2023-04-29T21:34:23.474Z,72.14
2023-04-29T21:37:11.848Z,71.95
2023-04-29T21:40:00.486Z,72.72
2023-04-29T21:42:48.989Z,72.63
2023-04-29T21:45:37.428Z,72.71
2023-04-29T21:48:27.603Z,72.89
2023-04-29T21:51:16.251Z,72.79
2023-04-29T21:54:08.346Z,73.10
2023-04-29T21:56:57.944Z,73.36
2023-04-29T21:59:46.403Z,72.89
2023-04-29T22:02:38.345Z,72.50
2023-04-29T22:05:28.132Z,72.91
2023-04-29T22:08:16.680Z,72.73
2023-04-29T22:11:05.011Z,73.21
2023-04-29T22:13:53.416Z,73.93
2023-04-29T22:16:41.931Z,74.26
2023-04-29T22:19:30.376Z,74.88
2023-04-29T22:22:20.142Z,76.91
2023-04-29T22:25:09.634Z,76.38
2023-04-29T22:27:58.034Z,75.75
2023-04-29T22:30:47.257Z,75.35
2023-04-29T22:33:35.856Z,75.58
2023-04-29T22:36:24.275Z,75.64
2023-04-29T22:39:14.051Z,75.78
2023-04-29T22:42:02.980Z,75.27
2023-04-29T22:44:51.420Z,74.73
2023-04-29T22:47:40.037Z,74.77
2023-04-29T22:50:28.444Z,74.16
2023-04-29T22:53:16.824Z,74.39
2023-04-29T22:56:07.004Z,75.11
2023-04-29T22:58:55.932Z,76.63
2023-04-29T23:01:44.336Z,77.44
2023-04-29T23:04:33.398Z,77.32
2023-04-29T23:07:21.902Z,76.64
2023-04-29T23:10:11.100Z,76.26
2023-04-29T23:13:00.863Z,76.18
2023-04-29T23:15:49.260Z,75.98
2023-04-29T23:18:37.796Z,76.10
2023-04-29T23:21:27.117Z,76.27
2023-04-29T23:24:15.521Z,75.82
2023-04-29T23:27:04.257Z,75.68
2023-04-29T23:29:54.175Z,75.07
2023-04-29T23:32:42.798Z,75.47
2023-04-29T23:35:31.674Z,76.01
2023-04-29T23:38:20.379Z,76.38
2023-04-29T23:41:08.825Z,76.73
2023-04-29T23:44:01.032Z,76.44
2023-04-29T23:46:50.897Z,76.57
2023-04-29T23:49:39.253Z,76.59
2023-04-29T23:52:27.727Z,76.27
2023-04-29T23:55:16.132Z,76.55
2023-04-29T23:58:04.511Z,77.01
